sensor_id;sensor_type;location;lat;lon;timestamp;pressure;altitude;pressure_sealevel;temperature;humidity
40612;BME280;26317;44.894;20.286;2023-04-20T00:00:30;100528.94;;;12.27;94.80
40612;BME280;26317;44.894;20.286;2023-04-20T00:03:17;100525.16;;;12.28;94.76
40612;BME280;26317;44.894;20.286;2023-04-20T00:05:52;100511.25;;;12.21;94.61
40612;BME280;26317;44.894;20.286;2023-04-20T00:08:28;100524.16;;;12.19;94.99
40612;BME280;26317;44.894;20.286;2023-04-20T00:11:08;100524.97;;;12.20;95.09
40612;BME280;26317;44.894;20.286;2023-04-20T00:13:51;100513.19;;;12.11;95.60
40612;BME280;26317;44.894;20.286;2023-04-20T00:16:22;100520.50;;;12.10;95.29
40612;BME280;26317;44.894;20.286;2023-04-20T00:19:11;100522.34;;;12.15;94.66
40612;BME280;26317;44.894;20.286;2023-04-20T00:21:48;100523.47;;;12.04;95.24
40612;BME280;26317;44.894;20.286;2023-04-20T00:24:25;100516.28;;;11.94;96.13
40612;BME280;26317;44.894;20.286;2023-04-20T00:27:09;100504.53;;;11.85;96.79
40612;BME280;26317;44.894;20.286;2023-04-20T00:29:44;100518.25;;;11.83;96.41
40612;BME280;26317;44.894;20.286;2023-04-20T00:32:22;100510.22;;;11.78;96.76
40612;BME280;26317;44.894;20.286;2023-04-20T00:35:01;100512.41;;;11.76;97.23
40612;BME280;26317;44.894;20.286;2023-04-20T00:37:35;100507.59;;;11.68;97.49
40612;BME280;26317;44.894;20.286;2023-04-20T00:40:21;100505.50;;;11.60;97.66
40612;BME280;26317;44.894;20.286;2023-04-20T00:42:57;100512.66;;;11.70;98.17
40612;BME280;26317;44.894;20.286;2023-04-20T00:45:44;100511.91;;;11.64;97.60
40612;BME280;26317;44.894;20.286;2023-04-20T00:48:27;100512.66;;;11.70;97.30
40612;BME280;26317;44.894;20.286;2023-04-20T00:51:00;100511.28;;;11.77;96.97
40612;BME280;26317;44.894;20.286;2023-04-20T00:53:39;100510.47;;;11.82;97.03
40612;BME280;26317;44.894;20.286;2023-04-20T00:56:21;100523.06;;;11.86;96.56
40612;BME280;26317;44.894;20.286;2023-04-20T00:59:02;100514.97;;;11.91;95.51
40612;BME280;26317;44.894;20.286;2023-04-20T01:01:35;100499.19;;;11.80;95.32
40612;BME280;26317;44.894;20.286;2023-04-20T01:04:18;100505.34;;;11.85;95.35
40612;BME280;26317;44.894;20.286;2023-04-20T01:06:55;100515.53;;;11.88;95.14
40612;BME280;26317;44.894;20.286;2023-04-20T01:09:31;100505.88;;;11.82;95.79
40612;BME280;26317;44.894;20.286;2023-04-20T01:12:10;100517.19;;;11.84;96.00
40612;BME280;26317;44.894;20.286;2023-04-20T01:14:47;100512.94;;;11.73;96.46
40612;BME280;26317;44.894;20.286;2023-04-20T01:17:25;100510.25;;;11.73;97.12
40612;BME280;26317;44.894;20.286;2023-04-20T01:20:02;100485.88;;;11.60;96.78
40612;BME280;26317;44.894;20.286;2023-04-20T01:22:44;100509.97;;;11.70;96.84
40612;BME280;26317;44.894;20.286;2023-04-20T01:25:22;100510.28;;;11.63;96.95
40612;BME280;26317;44.894;20.286;2023-04-20T01:28:08;100512.75;;;11.60;97.50
40612;BME280;26317;44.894;20.286;2023-04-20T01:30:43;100511.38;;;11.62;97.25
40612;BME280;26317;44.894;20.286;2023-04-20T01:33:25;100514.06;;;11.57;97.10
40612;BME280;26317;44.894;20.286;2023-04-20T01:36:14;100503.66;;;11.50;97.37
40612;BME280;26317;44.894;20.286;2023-04-20T01:38:49;100505.56;;;11.45;98.36
40612;BME280;26317;44.894;20.286;2023-04-20T01:41:22;100494.31;;;11.38;97.91
40612;BME280;26317;44.894;20.286;2023-04-20T01:44:21;100510.94;;;11.45;98.09
40612;BME280;26317;44.894;20.286;2023-04-20T01:47:12;100510.34;;;11.48;97.78
40612;BME280;26317;44.894;20.286;2023-04-20T01:49:49;100508.22;;;11.50;96.98
40612;BME280;26317;44.894;20.286;2023-04-20T01:52:33;100491.38;;;11.39;97.22
40612;BME280;26317;44.894;20.286;2023-04-20T01:55:10;100520.00;;;11.54;96.45
40612;BME280;26317;44.894;20.286;2023-04-20T01:58:00;100500.19;;;11.45;95.78
40612;BME280;26317;44.894;20.286;2023-04-20T02:00:47;100514.91;;;11.52;95.69
40612;BME280;26317;44.894;20.286;2023-04-20T02:03:24;100509.84;;;11.51;95.95
40612;BME280;26317;44.894;20.286;2023-04-20T02:06:14;100495.13;;;11.38;95.32
40612;BME280;26317;44.894;20.286;2023-04-20T02:08:47;100508.78;;;11.47;94.88
40612;BME280;26317;44.894;20.286;2023-04-20T02:11:27;100510.69;;;11.41;95.40
40612;BME280;26317;44.894;20.286;2023-04-20T02:14:07;100490.13;;;11.17;95.17
40612;BME280;26317;44.894;20.286;2023-04-20T02:16:39;100522.56;;;11.25;96.31
40612;BME280;26317;44.894;20.286;2023-04-20T02:19:12;100513.22;;;11.18;96.86
40612;BME280;26317;44.894;20.286;2023-04-20T02:21:49;100512.16;;;11.19;97.05
40612;BME280;26317;44.894;20.286;2023-04-20T02:24:28;100510.50;;;11.23;96.58
40612;BME280;26317;44.894;20.286;2023-04-20T02:27:09;100514.28;;;11.22;96.94
40612;BME280;26317;44.894;20.286;2023-04-20T02:29:45;100506.78;;;11.19;96.33
40612;BME280;26317;44.894;20.286;2023-04-20T02:32:21;100521.25;;;11.23;95.92
40612;BME280;26317;44.894;20.286;2023-04-20T02:34:57;100505.97;;;11.13;95.47
40612;BME280;26317;44.894;20.286;2023-04-20T02:37:36;100514.81;;;11.19;95.25
40612;BME280;26317;44.894;20.286;2023-04-20T02:40:10;100516.97;;;11.17;95.02
40612;BME280;26317;44.894;20.286;2023-04-20T02:42:47;100511.59;;;11.17;94.56
40612;BME280;26317;44.894;20.286;2023-04-20T02:45:21;100483.78;;;10.97;93.97
40612;BME280;26317;44.894;20.286;2023-04-20T02:48:01;100514.28;;;11.17;93.46
40612;BME280;26317;44.894;20.286;2023-04-20T02:50:45;100515.09;;;11.12;92.20
40612;BME280;26317;44.894;20.286;2023-04-20T02:53:31;100517.78;;;11.12;91.31
40612;BME280;26317;44.894;20.286;2023-04-20T02:56:33;100488.59;;;10.90;91.30
40612;BME280;26317;44.894;20.286;2023-04-20T02:59:15;100515.41;;;11.05;90.67
40612;BME280;26317;44.894;20.286;2023-04-20T03:02:21;100503.63;;;10.91;90.35
40612;BME280;26317;44.894;20.286;2023-04-20T03:04:58;100519.44;;;11.03;90.33
40612;BME280;26317;44.894;20.286;2023-04-20T03:07:45;100509.56;;;10.93;89.94
40612;BME280;26317;44.894;20.286;2023-04-20T03:10:21;100519.97;;;11.00;89.40
40612;BME280;26317;44.894;20.286;2023-04-20T03:13:15;100522.66;;;11.00;88.85
40612;BME280;26317;44.894;20.286;2023-04-20T03:16:04;100524.28;;;10.96;88.37
40612;BME280;26317;44.894;20.286;2023-04-20T03:18:53;100515.44;;;10.90;88.89
40612;BME280;26317;44.894;20.286;2023-04-20T03:21:37;100518.94;;;10.91;88.77
40612;BME280;26317;44.894;20.286;2023-04-20T03:24:15;100523.78;;;10.89;88.55
40612;BME280;26317;44.894;20.286;2023-04-20T03:26:53;100519.75;;;10.86;88.76
40612;BME280;26317;44.894;20.286;2023-04-20T03:29:46;100500.22;;;10.76;88.69
40612;BME280;26317;44.894;20.286;2023-04-20T03:32:27;100523.25;;;10.82;88.81
40612;BME280;26317;44.894;20.286;2023-04-20T03:35:04;100522.44;;;10.81;88.65
40612;BME280;26317;44.894;20.286;2023-04-20T03:37:47;100519.78;;;10.76;88.97
40612;BME280;26317;44.894;20.286;2023-04-20T03:40:24;100503.72;;;10.61;88.74
40612;BME280;26317;44.894;20.286;2023-04-20T03:43:01;100536.41;;;10.73;88.81
40612;BME280;26317;44.894;20.286;2023-04-20T03:45:42;100528.66;;;10.72;89.09
40612;BME280;26317;44.894;20.286;2023-04-20T03:48:21;100534.28;;;10.65;89.04
40612;BME280;26317;44.894;20.286;2023-04-20T03:50:56;100542.88;;;10.67;89.03
40612;BME280;26317;44.894;20.286;2023-04-20T03:53:34;100544.19;;;10.65;88.90
40612;BME280;26317;44.894;20.286;2023-04-20T03:56:14;100543.94;;;10.61;89.19
40612;BME280;26317;44.894;20.286;2023-04-20T03:58:53;100546.63;;;10.61;89.56
40612;BME280;26317;44.894;20.286;2023-04-20T04:01:29;100542.88;;;10.57;90.00
40612;BME280;26317;44.894;20.286;2023-04-20T04:04:08;100547.72;;;10.55;90.74
40612;BME280;26317;44.894;20.286;2023-04-20T04:06:44;100522.00;;;10.39;91.00
40612;BME280;26317;44.894;20.286;2023-04-20T04:09:18;100553.59;;;10.57;91.13
40612;BME280;26317;44.894;20.286;2023-04-20T04:11:53;100551.22;;;10.55;91.88
40612;BME280;26317;44.894;20.286;2023-04-20T04:14:31;100558.97;;;10.57;92.55
40612;BME280;26317;44.894;20.286;2023-04-20T04:17:06;100548.25;;;10.57;92.91
40612;BME280;26317;44.894;20.286;2023-04-20T04:19:53;100561.91;;;10.60;93.31
40612;BME280;26317;44.894;20.286;2023-04-20T04:22:30;100559.50;;;10.64;93.99
40612;BME280;26317;44.894;20.286;2023-04-20T04:25:39;100560.28;;;10.65;94.00
40612;BME280;26317;44.894;20.286;2023-04-20T04:28:13;100555.78;;;10.60;93.24
40612;BME280;26317;44.894;20.286;2023-04-20T04:30:59;100564.34;;;10.62;93.75
40612;BME280;26317;44.894;20.286;2023-04-20T04:33:43;100568.13;;;10.56;93.74
40612;BME280;26317;44.894;20.286;2023-04-20T04:36:36;100561.13;;;10.55;94.16
40612;BME280;26317;44.894;20.286;2023-04-20T04:39:12;100545.03;;;10.40;94.63
40612;BME280;26317;44.894;20.286;2023-04-20T04:41:55;100569.19;;;10.55;95.22
40612;BME280;26317;44.894;20.286;2023-04-20T04:44:43;100565.13;;;10.52;95.70
40612;BME280;26317;44.894;20.286;2023-04-20T04:47:35;100571.84;;;10.55;96.60
40612;BME280;26317;44.894;20.286;2023-04-20T04:50:13;100564.59;;;10.60;97.50
40612;BME280;26317;44.894;20.286;2023-04-20T04:52:59;100541.28;;;10.46;97.76
40612;BME280;26317;44.894;20.286;2023-04-20T04:55:34;100572.63;;;10.66;98.80
40612;BME280;26317;44.894;20.286;2023-04-20T04:58:10;100581.50;;;10.71;99.13
40612;BME280;26317;44.894;20.286;2023-04-20T05:00:43;100588.75;;;10.76;99.69
40612;BME280;26317;44.894;20.286;2023-04-20T05:03:19;100582.28;;;10.82;100.00
40612;BME280;26317;44.894;20.286;2023-04-20T05:05:52;100580.94;;;10.84;100.00
40612;BME280;26317;44.894;20.286;2023-04-20T05:08:31;100581.47;;;10.86;100.00
40612;BME280;26317;44.894;20.286;2023-04-20T05:11:04;100578.50;;;10.93;100.00
40612;BME280;26317;44.894;20.286;2023-04-20T05:13:38;100583.84;;;11.03;100.00
40612;BME280;26317;44.894;20.286;2023-04-20T05:16:13;100591.63;;;11.04;100.00
40612;BME280;26317;44.894;20.286;2023-04-20T05:19:00;100588.38;;;11.13;100.00
40612;BME280;26317;44.894;20.286;2023-04-20T05:21:35;100590.78;;;11.19;100.00
40612;BME280;26317;44.894;20.286;2023-04-20T05:24:20;100585.13;;;11.26;100.00
40612;BME280;26317;44.894;20.286;2023-04-20T05:26:58;100598.50;;;11.36;100.00
40612;BME280;26317;44.894;20.286;2023-04-20T05:29:38;100591.81;;;11.33;100.00
40612;BME280;26317;44.894;20.286;2023-04-20T05:32:20;100591.56;;;11.35;100.00
40612;BME280;26317;44.894;20.286;2023-04-20T05:34:51;100589.88;;;11.44;100.00
40612;BME280;26317;44.894;20.286;2023-04-20T05:37:33;100590.75;;;11.34;99.93
40612;BME280;26317;44.894;20.286;2023-04-20T05:40:18;100595.53;;;11.47;100.00
40612;BME280;26317;44.894;20.286;2023-04-20T05:42:52;100593.34;;;11.49;99.86
40612;BME280;26317;44.894;20.286;2023-04-20T05:45:26;100581.03;;;11.43;99.69
40612;BME280;26317;44.894;20.286;2023-04-20T05:48:05;100597.34;;;11.62;99.43
40612;BME280;26317;44.894;20.286;2023-04-20T05:50:43;100601.06;;;11.66;96.91
40612;BME280;26317;44.894;20.286;2023-04-20T05:53:15;100597.03;;;11.74;97.40
40612;BME280;26317;44.894;20.286;2023-04-20T05:55:54;100604.25;;;11.83;96.62
40612;BME280;26317;44.894;20.286;2023-04-20T05:58:31;100595.34;;;11.93;96.95
40612;BME280;26317;44.894;20.286;2023-04-20T06:01:11;100600.41;;;11.94;96.12
40612;BME280;26317;44.894;20.286;2023-04-20T06:03:49;100593.13;;;12.00;96.44
40612;BME280;26317;44.894;20.286;2023-04-20T06:06:29;100598.72;;;12.09;95.82
40612;BME280;26317;44.894;20.286;2023-04-20T06:09:06;100597.66;;;12.10;94.42
40612;BME280;26317;44.894;20.286;2023-04-20T06:11:47;100610.75;;;12.21;94.25
40612;BME280;26317;44.894;20.286;2023-04-20T06:14:21;100612.78;;;11.95;93.87
40612;BME280;26317;44.894;20.286;2023-04-20T06:16:55;100605.75;;;12.05;92.81
40612;BME280;26317;44.894;20.286;2023-04-20T06:19:32;100605.50;;;12.01;94.22
40612;BME280;26317;44.894;20.286;2023-04-20T06:22:10;100583.44;;;12.04;92.76
40612;BME280;26317;44.894;20.286;2023-04-20T06:25:00;100603.72;;;12.25;92.53
40612;BME280;26317;44.894;20.286;2023-04-20T06:27:34;100596.16;;;12.27;92.13
40612;BME280;26317;44.894;20.286;2023-04-20T06:30:12;100612.25;;;12.32;91.63
40612;BME280;26317;44.894;20.286;2023-04-20T06:32:55;100611.22;;;12.28;91.01
40612;BME280;26317;44.894;20.286;2023-04-20T06:35:39;100617.84;;;12.41;90.38
40612;BME280;26317;44.894;20.286;2023-04-20T06:38:16;100606.06;;;12.37;89.74
40612;BME280;26317;44.894;20.286;2023-04-20T06:40:50;100613.16;;;12.57;89.74
40612;BME280;26317;44.894;20.286;2023-04-20T06:43:24;100622.44;;;12.74;89.29
40612;BME280;26317;44.894;20.286;2023-04-20T06:45:59;100596.03;;;12.76;87.92
40612;BME280;26317;44.894;20.286;2023-04-20T06:48:32;100617.56;;;12.76;89.50
40612;BME280;26317;44.894;20.286;2023-04-20T06:51:10;100602.50;;;12.75;87.82
40612;BME280;26317;44.894;20.286;2023-04-20T06:53:45;100631.41;;;12.94;88.01
40612;BME280;26317;44.894;20.286;2023-04-20T06:56:21;100624.06;;;12.99;88.52
40612;BME280;26317;44.894;20.286;2023-04-20T06:58:56;100634.16;;;13.17;87.08
40612;BME280;26317;44.894;20.286;2023-04-20T07:01:34;100632.47;;;13.26;87.06
40612;BME280;26317;44.894;20.286;2023-04-20T07:04:11;100628.59;;;13.32;85.85
40612;BME280;26317;44.894;20.286;2023-04-20T07:06:55;100642.47;;;13.45;85.10
40612;BME280;26317;44.894;20.286;2023-04-20T07:09:35;100629.94;;;13.35;84.98
40612;BME280;26317;44.894;20.286;2023-04-20T07:12:10;100630.44;;;13.37;85.13
40612;BME280;26317;44.894;20.286;2023-04-20T07:14:56;100614.34;;;13.32;85.19
40612;BME280;26317;44.894;20.286;2023-04-20T07:17:36;100633.16;;;13.61;83.56
40612;BME280;26317;44.894;20.286;2023-04-20T07:20:10;100641.38;;;13.69;82.12
40612;BME280;26317;44.894;20.286;2023-04-20T07:22:40;100644.97;;;13.83;81.81
40612;BME280;26317;44.894;20.286;2023-04-20T07:25:15;100644.06;;;13.93;81.62
40612;BME280;26317;44.894;20.286;2023-04-20T07:27:55;100644.22;;;14.02;81.23
40612;BME280;26317;44.894;20.286;2023-04-20T07:30:33;100633.25;;;13.93;80.19
40612;BME280;26317;44.894;20.286;2023-04-20T07:33:21;100643.91;;;14.03;80.63
40612;BME280;26317;44.894;20.286;2023-04-20T07:36:00;100647.41;;;14.04;80.75
40612;BME280;26317;44.894;20.286;2023-04-20T07:38:37;100655.66;;;14.12;79.83
40612;BME280;26317;44.894;20.286;2023-04-20T07:41:26;100646.09;;;14.01;78.90
40612;BME280;26317;44.894;20.286;2023-04-20T07:44:08;100647.34;;;14.09;79.45
40612;BME280;26317;44.894;20.286;2023-04-20T07:46:45;100641.16;;;14.27;80.16
40612;BME280;26317;44.894;20.286;2023-04-20T07:49:24;100639.66;;;14.40;79.33
40612;BME280;26317;44.894;20.286;2023-04-20T07:51:59;100635.16;;;14.49;77.99
40612;BME280;26317;44.894;20.286;2023-04-20T07:54:44;100636.91;;;14.58;77.61
40612;BME280;26317;44.894;20.286;2023-04-20T07:57:33;100638.94;;;14.66;75.37
40612;BME280;26317;44.894;20.286;2023-04-20T08:00:14;100635.22;;;14.62;75.12
40612;BME280;26317;44.894;20.286;2023-04-20T08:03:02;100646.19;;;14.85;77.55
40612;BME280;26317;44.894;20.286;2023-04-20T08:05:44;100637.91;;;14.95;73.95
40612;BME280;26317;44.894;20.286;2023-04-20T08:08:23;100645.84;;;15.05;72.74
40612;BME280;26317;44.894;20.286;2023-04-20T08:11:01;100638.91;;;14.99;73.68
40612;BME280;26317;44.894;20.286;2023-04-20T08:13:44;100640.03;;;15.11;74.23
40612;BME280;26317;44.894;20.286;2023-04-20T08:16:30;100638.13;;;15.12;71.52
40612;BME280;26317;44.894;20.286;2023-04-20T08:19:12;100638.97;;;15.26;72.53
40612;BME280;26317;44.894;20.286;2023-04-20T08:21:59;100653.50;;;15.30;68.02
40612;BME280;26317;44.894;20.286;2023-04-20T08:24:36;100650.78;;;15.30;68.19
40612;BME280;26317;44.894;20.286;2023-04-20T08:27:09;100648.19;;;15.39;68.48
40612;BME280;26317;44.894;20.286;2023-04-20T08:29:43;100648.28;;;15.47;68.14
40612;BME280;26317;44.894;20.286;2023-04-20T08:32:17;100645.69;;;15.42;68.50
40612;BME280;26317;44.894;20.286;2023-04-20T08:34:59;100650.69;;;15.49;68.21
40612;BME280;26317;44.894;20.286;2023-04-20T08:37:46;100650.31;;;15.55;66.67
40612;BME280;26317;44.894;20.286;2023-04-20T08:40:23;100653.13;;;15.64;67.11
40612;BME280;26317;44.894;20.286;2023-04-20T08:43:01;100645.00;;;15.78;67.15
40612;BME280;26317;44.894;20.286;2023-04-20T08:45:36;100647.09;;;15.81;67.11
40612;BME280;26317;44.894;20.286;2023-04-20T08:48:16;100649.19;;;15.97;65.65
40612;BME280;26317;44.894;20.286;2023-04-20T08:50:59;100653.38;;;16.03;63.93
40612;BME280;26317;44.894;20.286;2023-04-20T08:53:37;100645.25;;;16.03;65.36
40612;BME280;26317;44.894;20.286;2023-04-20T08:56:16;100650.25;;;16.10;64.80
40612;BME280;26317;44.894;20.286;2023-04-20T08:58:58;100648.47;;;16.05;64.91
40612;BME280;26317;44.894;20.286;2023-04-20T09:01:34;100650.56;;;16.08;66.13
40612;BME280;26317;44.894;20.286;2023-04-20T09:04:20;100654.94;;;16.18;65.44
40612;BME280;26317;44.894;20.286;2023-04-20T09:06:57;100650.00;;;16.20;63.52
40612;BME280;26317;44.894;20.286;2023-04-20T09:09:35;100635.16;;;16.31;63.61
40612;BME280;26317;44.894;20.286;2023-04-20T09:14:54;100618.06;;;16.44;63.03
40612;BME280;26317;44.894;20.286;2023-04-20T09:17:35;100642.84;;;16.74;61.69
40612;BME280;26317;44.894;20.286;2023-04-20T09:20:27;100646.38;;;16.83;63.05
40612;BME280;26317;44.894;20.286;2023-04-20T09:23:20;100645.63;;;16.91;62.93
40612;BME280;26317;44.894;20.286;2023-04-20T09:26:03;100641.34;;;16.90;62.80
40612;BME280;26317;44.894;20.286;2023-04-20T09:28:49;100641.06;;;17.00;61.88
40612;BME280;26317;44.894;20.286;2023-04-20T09:31:29;100629.97;;;17.10;60.37
40612;BME280;26317;44.894;20.286;2023-04-20T09:34:06;100640.88;;;17.19;58.80
40612;BME280;26317;44.894;20.286;2023-04-20T09:37:08;100646.31;;;17.27;58.40
40612;BME280;26317;44.894;20.286;2023-04-20T09:39:46;100636.97;;;17.42;58.30
40612;BME280;26317;44.894;20.286;2023-04-20T09:42:20;100635.03;;;17.42;59.13
40612;BME280;26317;44.894;20.286;2023-04-20T09:45:06;100637.97;;;17.55;57.35
40612;BME280;26317;44.894;20.286;2023-04-20T09:47:43;100634.38;;;17.68;58.46
40612;BME280;26317;44.894;20.286;2023-04-20T09:50:20;100639.00;;;17.67;54.75
40612;BME280;26317;44.894;20.286;2023-04-20T09:53:10;100631.34;;;17.69;55.56
40612;BME280;26317;44.894;20.286;2023-04-20T09:55:51;100633.75;;;17.88;56.31
40612;BME280;26317;44.894;20.286;2023-04-20T09:58:25;100616.53;;;17.84;54.82
40612;BME280;26317;44.894;20.286;2023-04-20T10:01:18;100626.94;;;17.99;53.42
40612;BME280;26317;44.894;20.286;2023-04-20T10:04:05;100620.72;;;18.07;51.97
40612;BME280;26317;44.894;20.286;2023-04-20T10:06:53;100622.31;;;18.25;52.04
40612;BME280;26317;44.894;20.286;2023-04-20T10:09:38;100616.56;;;18.27;50.80
40612;BME280;26317;44.894;20.286;2023-04-20T10:12:20;100614.94;;;18.43;50.35
40612;BME280;26317;44.894;20.286;2023-04-20T10:14:55;100597.22;;;18.37;49.77
40612;BME280;26317;44.894;20.286;2023-04-20T10:17:31;100610.16;;;18.49;46.49
40612;BME280;26317;44.894;20.286;2023-04-20T10:20:19;100599.13;;;18.54;45.61
40612;BME280;26317;44.894;20.286;2023-04-20T10:23:06;100580.16;;;18.36;45.93
40612;BME280;26317;44.894;20.286;2023-04-20T10:25:56;100596.25;;;18.59;48.17
40612;BME280;26317;44.894;20.286;2023-04-20T10:28:44;100583.78;;;18.58;46.04
40612;BME280;26317;44.894;20.286;2023-04-20T10:31:18;100589.03;;;18.71;46.12
40612;BME280;26317;44.894;20.286;2023-04-20T10:34:06;100588.84;;;18.85;47.15
40612;BME280;26317;44.894;20.286;2023-04-20T10:36:47;100591.28;;;18.78;44.58
40612;BME280;26317;44.894;20.286;2023-04-20T10:39:19;100585.72;;;18.57;46.22
40612;BME280;26317;44.894;20.286;2023-04-20T10:41:54;100590.50;;;18.69;48.27
40612;BME280;26317;44.894;20.286;2023-04-20T10:44:29;100588.69;;;18.90;47.40
40612;BME280;26317;44.894;20.286;2023-04-20T10:47:05;100582.22;;;19.12;45.47
40612;BME280;26317;44.894;20.286;2023-04-20T10:49:42;100589.25;;;19.04;45.51
40612;BME280;26317;44.894;20.286;2023-04-20T10:52:34;100576.00;;;19.03;46.11
40612;BME280;26317;44.894;20.286;2023-04-20T10:55:20;100539.41;;;18.92;48.53
40612;BME280;26317;44.894;20.286;2023-04-20T10:57:54;100579.88;;;19.31;46.25
40612;BME280;26317;44.894;20.286;2023-04-20T11:00:30;100583.97;;;19.08;46.69
40612;BME280;26317;44.894;20.286;2023-04-20T11:03:08;100576.75;;;18.48;47.86
40612;BME280;26317;44.894;20.286;2023-04-20T11:05:43;100572.28;;;18.44;49.30
40612;BME280;26317;44.894;20.286;2023-04-20T11:08:17;100568.94;;;18.64;48.52
40612;BME280;26317;44.894;20.286;2023-04-20T11:11:04;100575.59;;;18.75;48.71
40612;BME280;26317;44.894;20.286;2023-04-20T11:13:42;100568.59;;;18.74;47.07
40612;BME280;26317;44.894;20.286;2023-04-20T11:16:21;100576.03;;;18.94;47.67
40612;BME280;26317;44.894;20.286;2023-04-20T11:19:26;100568.03;;;18.98;46.69
40612;BME280;26317;44.894;20.286;2023-04-20T11:21:57;100559.84;;;19.06;44.24
40612;BME280;26317;44.894;20.286;2023-04-20T11:24:34;100568.31;;;19.05;45.71
40612;BME280;26317;44.894;20.286;2023-04-20T11:27:18;100560.66;;;19.36;46.02
40612;BME280;26317;44.894;20.286;2023-04-20T11:29:59;100560.97;;;19.35;46.31
40612;BME280;26317;44.894;20.286;2023-04-20T11:32:52;100559.44;;;19.54;45.36
40612;BME280;26317;44.894;20.286;2023-04-20T11:35:38;100543.91;;;19.55;44.66
40612;BME280;26317;44.894;20.286;2023-04-20T11:38:28;100544.84;;;19.80;46.99
40612;BME280;26317;44.894;20.286;2023-04-20T11:41:03;100555.97;;;19.95;44.73
40612;BME280;26317;44.894;20.286;2023-04-20T11:43:45;100553.03;;;20.00;43.96
40612;BME280;26317;44.894;20.286;2023-04-20T11:46:19;100560.38;;;20.20;43.11
40612;BME280;26317;44.894;20.286;2023-04-20T11:48:54;100558.81;;;19.99;44.51
40612;BME280;26317;44.894;20.286;2023-04-20T11:51:30;100562.72;;;19.89;43.85
40612;BME280;26317;44.894;20.286;2023-04-20T11:54:07;100544.91;;;19.71;43.53
40612;BME280;26317;44.894;20.286;2023-04-20T11:56:44;100563.97;;;19.42;45.46
40612;BME280;26317;44.894;20.286;2023-04-20T11:59:17;100560.97;;;19.35;46.34
40612;BME280;26317;44.894;20.286;2023-04-20T12:01:54;100555.16;;;19.15;46.86
40612;BME280;26317;44.894;20.286;2023-04-20T12:04:37;100557.22;;;19.18;48.22
40612;BME280;26317;44.894;20.286;2023-04-20T12:07:13;100558.13;;;18.93;48.11
40612;BME280;26317;44.894;20.286;2023-04-20T12:09:48;100558.84;;;18.73;48.77
40612;BME280;26317;44.894;20.286;2023-04-20T12:12:22;100555.84;;;18.66;49.60
40612;BME280;26317;44.894;20.286;2023-04-20T12:14:57;100557.41;;;18.50;50.21
40612;BME280;26317;44.894;20.286;2023-04-20T12:17:32;100549.59;;;18.48;49.89
40612;BME280;26317;44.894;20.286;2023-04-20T12:20:11;100549.47;;;18.53;49.18
40612;BME280;26317;44.894;20.286;2023-04-20T12:22:50;100545.94;;;18.35;47.81
40612;BME280;26317;44.894;20.286;2023-04-20T12:25:28;100543.69;;;18.37;47.56
40612;BME280;26317;44.894;20.286;2023-04-20T12:28:02;100536.34;;;18.47;48.48
40612;BME280;26317;44.894;20.286;2023-04-20T12:30:40;100536.31;;;18.64;48.19
40612;BME280;26317;44.894;20.286;2023-04-20T12:33:15;100532.72;;;18.89;46.79
40612;BME280;26317;44.894;20.286;2023-04-20T12:35:54;100536.28;;;18.81;45.15
40612;BME280;26317;44.894;20.286;2023-04-20T12:38:38;100535.81;;;18.70;46.50
40612;BME280;26317;44.894;20.286;2023-04-20T12:41:14;100532.50;;;18.48;45.80
40612;BME280;26317;44.894;20.286;2023-04-20T12:43:45;100531.25;;;18.45;45.12
40612;BME280;26317;44.894;20.286;2023-04-20T12:46:20;100526.41;;;18.51;45.12
40612;BME280;26317;44.894;20.286;2023-04-20T12:49:00;100520.34;;;18.54;44.75
40612;BME280;26317;44.894;20.286;2023-04-20T12:51:55;100519.91;;;18.98;44.26
40612;BME280;26317;44.894;20.286;2023-04-20T12:54:31;100528.59;;;19.12;44.89
40612;BME280;26317;44.894;20.286;2023-04-20T12:57:14;100524.75;;;18.84;44.82
40612;BME280;26317;44.894;20.286;2023-04-20T12:59:51;100517.88;;;18.87;45.16
40612;BME280;26317;44.894;20.286;2023-04-20T13:02:28;100515.13;;;18.95;45.67
40612;BME280;26317;44.894;20.286;2023-04-20T13:05:03;100511.31;;;19.17;45.17
40612;BME280;26317;44.894;20.286;2023-04-20T13:07:43;100505.56;;;19.48;43.80
40612;BME280;26317;44.894;20.286;2023-04-20T13:10:16;100474.09;;;19.59;44.09
40612;BME280;26317;44.894;20.286;2023-04-20T13:12:48;100493.59;;;20.02;43.13
40612;BME280;26317;44.894;20.286;2023-04-20T13:15:30;100500.31;;;19.84;42.82
40612;BME280;26317;44.894;20.286;2023-04-20T13:18:08;100490.03;;;19.69;43.11
40612;BME280;26317;44.894;20.286;2023-04-20T13:20:45;100492.50;;;19.62;43.52
40612;BME280;26317;44.894;20.286;2023-04-20T13:23:29;100497.47;;;19.60;41.97
40612;BME280;26317;44.894;20.286;2023-04-20T13:26:07;100486.13;;;19.58;43.11
40612;BME280;26317;44.894;20.286;2023-04-20T13:28:41;100490.84;;;19.49;43.58
40612;BME280;26317;44.894;20.286;2023-04-20T13:31:18;100488.16;;;19.40;44.29
40612;BME280;26317;44.894;20.286;2023-04-20T13:33:55;100483.63;;;19.23;43.07
40612;BME280;26317;44.894;20.286;2023-04-20T13:36:30;100491.16;;;19.18;44.01
40612;BME280;26317;44.894;20.286;2023-04-20T13:39:15;100491.16;;;19.18;44.52
40612;BME280;26317;44.894;20.286;2023-04-20T13:41:55;100489.50;;;18.96;43.93
40612;BME280;26317;44.894;20.286;2023-04-20T13:44:26;100487.13;;;18.95;44.08
40612;BME280;26317;44.894;20.286;2023-04-20T13:46:58;100484.78;;;18.84;44.35